Time;durP1;ratioP1;P1;durP2;ratioP2;P2;SDS_P1;SDS_P2;PMS_P1;PMS_P2;Temp;Humidity;BMP_temperature;BMP_pressure;BME280_temperature;BME280_humidity;BME280_pressure;Samples;Min_cycle;Max_cycle;Signal;HPM_P1;HPM_P2
2021/08/08 00:00:37;;;;;;;6.45;4.30;;;24.80;77.50;;;;;;1886937;76;21005;-51
2021/08/08 00:03:06;;;;;;;6.20;4.08;;;24.80;77.60;;;;;;1886813;76;21028;-51
2021/08/08 00:05:36;;;;;;;8.33;4.20;;;24.70;77.50;;;;;;1886794;76;21012;-51
2021/08/08 00:08:05;;;;;;;10.13;3.87;;;24.70;77.80;;;;;;1886833;76;21016;-51
2021/08/08 00:10:35;;;;;;;7.15;4.17;;;24.70;77.50;;;;;;1886802;76;21012;-49
2021/08/08 00:13:05;;;;;;;7.12;4.72;;;24.70;77.40;;;;;;1886836;76;20989;-51
2021/08/08 00:15:34;;;;;;;7.85;4.03;;;24.80;77.40;;;;;;1886889;76;21054;-51
2021/08/08 00:18:05;;;;;;;10.43;4.37;;;24.80;77.40;;;;;;1886947;76;21544;-52
2021/08/08 00:20:35;;;;;;;6.70;4.70;;;24.80;77.70;;;;;;1886956;76;21037;-50
2021/08/08 00:23:05;;;;;;;6.78;4.60;;;24.80;77.70;;;;;;1886810;76;21154;-50
2021/08/08 00:25:34;;;;;;;9.35;4.42;;;24.80;77.80;;;;;;1886863;76;21079;-51
2021/08/08 00:28:05;;;;;;;5.83;3.80;;;24.90;77.80;;;;;;1886891;76;21066;-52
2021/08/08 00:30:35;;;;;;;5.95;4.00;;;24.90;77.90;;;;;;1886800;76;21009;-51
2021/08/08 00:33:05;;;;;;;7.37;4.85;;;24.80;77.90;;;;;;1886850;76;21063;-51
2021/08/08 00:35:36;;;;;;;6.35;5.20;;;24.80;77.90;;;;;;1886252;76;21096;-50
2021/08/08 00:38:05;;;;;;;11.85;4.75;;;24.70;78.00;;;;;;1886955;76;21001;-52
2021/08/08 00:40:35;;;;;;;7.15;5.20;;;24.60;78.30;;;;;;1886949;76;21017;-50
2021/08/08 00:43:06;;;;;;;6.62;5.30;;;24.60;78.60;;;;;;1886871;76;21079;-52
2021/08/08 00:45:36;;;;;;;6.00;5.03;;;24.60;79.00;;;;;;1886910;76;21012;-51
2021/08/08 00:48:07;;;;;;;9.45;5.33;;;24.60;79.10;;;;;;1886274;76;21020;-50
2021/08/08 00:50:38;;;;;;;7.70;5.08;;;24.50;79.20;;;;;;1886311;76;21072;-49
2021/08/08 00:53:09;;;;;;;8.78;5.10;;;24.50;79.40;;;;;;1886729;76;21080;-52
2021/08/08 00:55:39;;;;;;;8.38;5.28;;;24.50;79.40;;;;;;1886902;76;20980;-52
2021/08/08 00:58:09;;;;;;;8.58;5.20;;;24.50;79.80;;;;;;1886944;76;21047;-51
2021/08/08 01:00:41;;;;;;;8.05;4.67;;;24.50;79.60;;;;;;1886538;76;21037;-51
2021/08/08 01:03:13;;;;;;;6.97;4.90;;;24.50;79.70;;;;;;1886911;76;21071;-52
2021/08/08 01:05:52;;;;;;;7.10;4.90;;;24.50;79.90;;;;;;1886953;76;21001;-51
2021/08/08 01:08:30;;;;;;;9.43;5.55;;;24.50;79.70;;;;;;1886469;76;21068;-51
2021/08/08 01:11:02;;;;;;;8.28;4.85;;;24.50;79.90;;;;;;1886849;76;21098;-51
2021/08/08 01:13:33;;;;;;;6.50;5.10;;;24.50;79.80;;;;;;1886879;76;21082;-48
2021/08/08 01:16:02;;;;;;;6.05;5.20;;;24.50;79.70;;;;;;1886913;76;21075;-51
2021/08/08 01:18:33;;;;;;;6.58;4.80;;;24.50;79.60;;;;;;1886972;76;20992;-50
2021/08/08 01:21:03;;;;;;;7.80;4.85;;;24.50;79.80;;;;;;1886979;76;21032;-51
2021/08/08 01:23:34;;;;;;;5.25;4.70;;;24.60;79.90;;;;;;1886788;75;21084;-50
2021/08/08 01:26:04;;;;;;;8.00;5.10;;;24.60;79.70;;;;;;1886870;76;21076;-50
2021/08/08 01:28:34;;;;;;;6.65;5.08;;;24.60;79.50;;;;;;1887044;76;20996;-49
2021/08/08 01:31:04;;;;;;;7.03;4.55;;;24.60;79.60;;;;;;1886953;76;21083;-51
2021/08/08 01:33:35;;;;;;;7.62;5.47;;;24.60;79.70;;;;;;1886940;76;21053;-50
2021/08/08 01:36:06;;;;;;;6.42;4.75;;;24.70;79.80;;;;;;1886444;76;21503;-50
2021/08/08 01:38:38;;;;;;;5.75;4.47;;;24.70;79.70;;;;;;1886910;76;21078;-50
2021/08/08 01:41:11;;;;;;;5.90;5.03;;;24.70;79.60;;;;;;1886903;76;21489;-49
2021/08/08 01:43:44;;;;;;;7.50;6.10;;;24.80;79.40;;;;;;1887105;75;21135;-50
2021/08/08 01:46:16;;;;;;;8.28;5.20;;;24.70;79.30;;;;;;1886934;76;21090;-49
2021/08/08 01:48:56;;;;;;;6.60;5.25;;;24.70;79.40;;;;;;1867693;76;20997;-48
2021/08/08 01:51:26;;;;;;;5.65;4.80;;;24.60;79.60;;;;;;1886887;76;21036;-49
2021/08/08 01:53:56;;;;;;;7.33;5.87;;;24.60;79.70;;;;;;1886861;76;21016;-48
2021/08/08 01:56:26;;;;;;;9.33;5.60;;;24.70;79.80;;;;;;1887008;76;21012;-48
2021/08/08 01:58:55;;;;;;;8.05;5.28;;;24.70;79.80;;;;;;1886877;76;21426;-49
2021/08/08 02:01:30;;;;;;;5.92;4.80;;;24.70;79.80;;;;;;1887042;76;21501;-48
2021/08/08 02:04:01;;;;;;;6.53;5.40;;;24.70;79.50;;;;;;1885311;76;21064;-51
2021/08/08 02:06:30;;;;;;;8.45;5.25;;;24.70;79.40;;;;;;1887016;76;21067;-50
2021/08/08 02:09:01;;;;;;;5.78;5.10;;;24.70;79.50;;;;;;1886986;76;21012;-50
2021/08/08 02:11:30;;;;;;;5.90;4.60;;;24.80;79.70;;;;;;1886890;76;21498;-51
2021/08/08 02:14:01;;;;;;;6.78;5.20;;;24.80;79.50;;;;;;1886195;76;21045;-49
2021/08/08 02:16:33;;;;;;;8.30;5.35;;;24.80;79.20;;;;;;1886975;76;20984;-51
2021/08/08 02:19:04;;;;;;;9.33;4.62;;;24.90;79.30;;;;;;1886889;76;21008;-50
2021/08/08 02:21:35;;;;;;;9.38;4.95;;;24.90;79.50;;;;;;1886237;76;21015;-51
2021/08/08 02:24:05;;;;;;;5.67;5.08;;;24.90;79.60;;;;;;1886813;74;21045;-51
2021/08/08 02:26:36;;;;;;;7.58;5.60;;;24.90;79.60;;;;;;1886523;76;21040;-51
2021/08/08 02:29:06;;;;;;;5.83;4.65;;;24.90;79.60;;;;;;1886898;76;21074;-48
2021/08/08 02:31:39;;;;;;;7.83;5.58;;;25.00;79.70;;;;;;1886850;76;21008;-50
2021/08/08 02:34:13;;;;;;;5.67;5.08;;;25.00;79.70;;;;;;1886264;76;21053;-51
2021/08/08 02:36:43;;;;;;;12.37;7.87;;;25.00;79.50;;;;;;1887089;76;21004;-51
2021/08/08 02:39:13;;;;;;;13.45;7.53;;;25.00;79.60;;;;;;1886961;76;21078;-50
2021/08/08 02:41:42;;;;;;;12.88;7.10;;;24.90;79.90;;;;;;1886879;76;21058;-51
2021/08/08 02:44:11;;;;;;;13.95;7.50;;;24.90;80.20;;;;;;1886810;76;21010;-51
2021/08/08 02:46:41;;;;;;;10.93;6.87;;;25.00;80.20;;;;;;1886919;76;21098;-52
2021/08/08 02:49:10;;;;;;;8.43;5.37;;;25.00;80.20;;;;;;1886943;76;21074;-51
2021/08/08 02:51:39;;;;;;;11.78;6.62;;;25.00;80.20;;;;;;1886949;76;21013;-49
2021/08/08 02:54:13;;;;;;;11.85;5.65;;;25.10;80.30;;;;;;1886877;76;21167;-50
2021/08/08 02:56:42;;;;;;;8.58;5.92;;;25.10;80.30;;;;;;1886860;76;21110;-51
2021/08/08 02:59:11;;;;;;;6.53;5.15;;;25.20;80.50;;;;;;1887052;76;21039;-51
2021/08/08 03:01:45;;;;;;;6.08;5.35;;;25.20;80.20;;;;;;1886445;76;21143;-49
2021/08/08 03:04:14;;;;;;;8.15;5.60;;;25.20;80.00;;;;;;1886919;76;20989;-51
2021/08/08 03:06:47;;;;;;;9.15;5.87;;;25.20;80.10;;;;;;1886967;76;21021;-51
2021/08/08 03:09:17;;;;;;;6.62;5.30;;;25.10;80.20;;;;;;1886977;76;21001;-49
2021/08/08 03:11:46;;;;;;;6.90;5.10;;;25.20;80.30;;;;;;1886921;76;21012;-52
2021/08/08 03:14:18;;;;;;;7.65;5.33;;;25.20;80.20;;;;;;1886897;76;21033;-51
2021/08/08 03:16:48;;;;;;;6.15;5.08;;;25.20;79.90;;;;;;1886995;76;21074;-51
2021/08/08 03:19:19;;;;;;;6.00;5.40;;;25.20;79.80;;;;;;1886930;76;21040;-51
2021/08/08 03:21:49;;;;;;;8.60;5.83;;;25.20;80.00;;;;;;1886979;76;21058;-48
2021/08/08 03:24:18;;;;;;;9.85;6.62;;;25.20;79.90;;;;;;1887013;76;21127;-51
2021/08/08 03:26:47;;;;;;;8.55;5.85;;;25.20;79.60;;;;;;1893308;74;21024;-51
2021/08/08 03:29:17;;;;;;;7.25;6.42;;;25.10;79.80;;;;;;1893461;76;21588;-49
2021/08/08 03:31:47;;;;;;;7.78;5.53;;;25.10;80.00;;;;;;1893478;76;21008;-51
2021/08/08 03:34:17;;;;;;;10.43;6.05;;;25.10;80.70;;;;;;1893470;76;21149;-51
2021/08/08 03:36:46;;;;;;;9.43;6.62;;;25.20;80.40;;;;;;1893557;76;21004;-51
2021/08/08 03:39:17;;;;;;;9.13;7.12;;;25.20;80.40;;;;;;1893572;76;21082;-51
2021/08/08 03:41:46;;;;;;;7.05;6.28;;;25.20;80.40;;;;;;1893486;76;21004;-50
2021/08/08 03:44:17;;;;;;;7.25;5.72;;;25.20;80.40;;;;;;1893369;76;21079;-50
2021/08/08 03:46:46;;;;;;;8.08;6.10;;;25.30;80.50;;;;;;1893461;76;21103;-51
2021/08/08 03:49:18;;;;;;;7.72;6.40;;;25.30;80.50;;;;;;1893377;76;21020;-51
2021/08/08 03:51:47;;;;;;;11.75;6.67;;;25.40;80.40;;;;;;1893431;76;21493;-51
2021/08/08 03:54:18;;;;;;;16.95;7.15;;;25.40;80.20;;;;;;1893457;76;21016;-48
2021/08/08 03:56:48;;;;;;;12.07;7.10;;;25.40;80.10;;;;;;1893399;76;21008;-50
2021/08/08 03:59:18;;;;;;;10.98;8.20;;;25.40;80.10;;;;;;1893507;76;21024;-50
2021/08/08 04:01:47;;;;;;;9.08;7.80;;;25.40;80.10;;;;;;1893411;76;21074;-51
2021/08/08 04:04:17;;;;;;;10.88;7.47;;;25.40;80.30;;;;;;1893357;76;21079;-49
2021/08/08 04:06:46;;;;;;;9.28;7.25;;;25.40;80.30;;;;;;1893466;76;21043;-50
2021/08/08 04:09:16;;;;;;;9.73;7.67;;;25.40;80.30;;;;;;1893397;76;21005;-49
2021/08/08 04:11:45;;;;;;;9.65;7.72;;;25.50;80.30;;;;;;1893381;76;21004;-49
2021/08/08 04:14:15;;;;;;;12.55;7.85;;;25.50;80.40;;;;;;1893439;76;21004;-51
2021/08/08 04:16:45;;;;;;;10.38;7.87;;;25.60;80.40;;;;;;1893509;76;21004;-48
2021/08/08 04:19:14;;;;;;;8.03;7.22;;;25.60;80.30;;;;;;1893440;76;21004;-51
2021/08/08 04:21:44;;;;;;;8.80;7.67;;;25.70;80.50;;;;;;1893372;76;21008;-51
2021/08/08 04:24:13;;;;;;;12.00;8.10;;;25.70;80.40;;;;;;1893416;76;20976;-50
2021/08/08 04:26:43;;;;;;;12.03;7.78;;;25.80;80.30;;;;;;1888970;76;21111;-51
2021/08/08 04:29:12;;;;;;;9.68;7.80;;;25.70;80.30;;;;;;1886881;76;21029;-51
2021/08/08 04:31:42;;;;;;;9.98;8.50;;;25.70;80.40;;;;;;1886822;76;21095;-51
2021/08/08 04:34:11;;;;;;;10.50;9.38;;;25.70;80.30;;;;;;1886749;76;21020;-51
2021/08/08 04:36:41;;;;;;;17.67;8.75;;;25.60;80.30;;;;;;1859765;76;21005;-51
2021/08/08 04:39:10;;;;;;;12.68;8.75;;;25.60;80.70;;;;;;1886964;76;21078;-50
2021/08/08 04:41:40;;;;;;;11.25;8.63;;;25.60;80.60;;;;;;1887020;76;21032;-50
2021/08/08 04:44:09;;;;;;;12.50;8.23;;;25.60;80.30;;;;;;1886872;76;21121;-48
2021/08/08 04:46:39;;;;;;;12.73;7.92;;;25.80;80.30;;;;;;1886930;76;21086;-51
2021/08/08 04:49:09;;;;;;;10.63;8.35;;;25.80;80.20;;;;;;1886849;76;21066;-50
2021/08/08 04:51:39;;;;;;;11.50;8.23;;;25.90;79.90;;;;;;1886980;76;21005;-51
2021/08/08 04:54:11;;;;;;;11.60;7.78;;;25.90;79.70;;;;;;1886876;76;21095;-48
2021/08/08 04:56:41;;;;;;;10.88;8.90;;;25.90;79.40;;;;;;1886817;76;21443;-51
2021/08/08 04:59:11;;;;;;;13.98;8.48;;;26.00;79.40;;;;;;1886835;76;21075;-50
2021/08/08 05:01:40;;;;;;;11.53;8.40;;;26.00;79.20;;;;;;1886718;76;21235;-51
2021/08/08 05:04:10;;;;;;;10.88;7.75;;;26.00;79.10;;;;;;1886800;76;21060;-50
2021/08/08 05:06:39;;;;;;;10.90;8.18;;;26.00;79.10;;;;;;1886811;76;21036;-50
2021/08/08 05:09:09;;;;;;;11.03;7.50;;;26.00;79.00;;;;;;1886921;76;21408;-51
2021/08/08 05:11:38;;;;;;;15.20;9.90;;;26.00;78.70;;;;;;1886907;76;21025;-51
2021/08/08 05:14:08;;;;;;;12.73;8.93;;;26.00;78.20;;;;;;1886891;76;21024;-51
2021/08/08 05:16:38;;;;;;;12.40;7.00;;;26.00;77.70;;;;;;1886806;76;21478;-51
2021/08/08 05:19:08;;;;;;;13.95;7.47;;;26.10;77.70;;;;;;1886903;76;21004;-51
2021/08/08 05:21:37;;;;;;;9.63;7.15;;;26.20;77.70;;;;;;1886799;76;21016;-50
2021/08/08 05:24:09;;;;;;;9.85;7.20;;;26.20;77.80;;;;;;1886940;76;20981;-51
2021/08/08 05:26:39;;;;;;;8.98;5.95;;;26.30;78.10;;;;;;1886799;76;21024;-48
2021/08/08 05:29:08;;;;;;;8.35;5.70;;;26.40;77.90;;;;;;1886820;76;21013;-51
2021/08/08 05:31:38;;;;;;;12.33;6.85;;;26.50;76.90;;;;;;1886904;76;21013;-50
2021/08/08 05:34:08;;;;;;;10.53;6.22;;;26.60;76.00;;;;;;1859889;76;21032;-50
2021/08/08 05:36:38;;;;;;;12.05;6.50;;;26.70;76.00;;;;;;1886881;76;21008;-52
2021/08/08 05:39:07;;;;;;;8.05;5.60;;;26.80;75.90;;;;;;1886847;76;21004;-52
2021/08/08 05:41:36;;;;;;;6.83;6.10;;;26.80;75.60;;;;;;1886980;76;20985;-52
2021/08/08 05:44:06;;;;;;;6.00;5.30;;;26.90;76.00;;;;;;1886860;76;21012;-52
2021/08/08 05:46:36;;;;;;;5.67;5.17;;;27.00;76.40;;;;;;1886974;76;21094;-51
2021/08/08 05:49:08;;;;;;;5.42;4.40;;;27.00;75.70;;;;;;1887116;76;21013;-49
2021/08/08 05:51:39;;;;;;;5.15;4.62;;;27.20;75.30;;;;;;1886985;76;21098;-51
2021/08/08 05:54:08;;;;;;;7.67;4.72;;;27.20;74.50;;;;;;1886986;76;21533;-51
2021/08/08 05:56:37;;;;;;;6.05;5.20;;;27.30;74.60;;;;;;1886933;76;21005;-51
2021/08/08 05:59:07;;;;;;;6.50;4.80;;;27.40;74.50;;;;;;1886970;76;20989;-51
2021/08/08 06:01:37;;;;;;;7.85;4.40;;;27.60;73.90;;;;;;1887027;76;20997;-51
2021/08/08 06:04:06;;;;;;;6.65;4.50;;;27.60;73.20;;;;;;1886918;76;21412;-52
2021/08/08 06:06:35;;;;;;;8.03;4.80;;;27.70;72.70;;;;;;1887057;76;21040;-51
2021/08/08 06:09:05;;;;;;;32.30;22.55;;;27.70;72.40;;;;;;1887050;76;21012;-50
2021/08/08 06:11:35;;;;;;;8.63;5.35;;;27.80;72.50;;;;;;1886958;76;20988;-52
2021/08/08 06:14:05;;;;;;;5.35;4.85;;;27.90;72.30;;;;;;1887045;76;21004;-53
2021/08/08 06:16:34;;;;;;;5.97;4.55;;;27.90;71.80;;;;;;1887089;76;21009;-50
2021/08/08 06:19:04;;;;;;;6.08;5.47;;;28.00;72.00;;;;;;1886910;76;21009;-52
2021/08/08 06:21:34;;;;;;;7.87;5.00;;;28.00;71.90;;;;;;1887010;76;20989;-52
2021/08/08 06:24:04;;;;;;;6.83;5.12;;;28.00;71.20;;;;;;1886839;76;21074;-51
2021/08/08 06:26:35;;;;;;;8.85;5.47;;;27.90;71.10;;;;;;1886916;75;21008;-51
2021/08/08 06:29:05;;;;;;;5.67;5.15;;;27.90;71.20;;;;;;1886923;76;21044;-51
2021/08/08 06:31:36;;;;;;;8.45;5.97;;;28.00;71.70;;;;;;1886960;76;21005;-51
2021/08/08 06:34:05;;;;;;;5.78;4.95;;;28.00;71.70;;;;;;1886918;76;21016;-52
2021/08/08 06:36:35;;;;;;;5.42;4.92;;;28.20;72.10;;;;;;1887060;76;21008;-50
2021/08/08 06:39:05;;;;;;;6.92;5.60;;;28.20;70.80;;;;;;1886930;76;21044;-51
2021/08/08 06:41:35;;;;;;;6.00;4.78;;;28.30;70.60;;;;;;1886245;76;20985;-54
2021/08/08 06:44:06;;;;;;;4.55;4.15;;;28.40;70.70;;;;;;1858390;77;21096;-54
2021/08/08 06:46:36;;;;;;;8.83;5.22;;;28.40;70.90;;;;;;1858058;77;21190;-54
2021/08/08 06:49:05;;;;;;;9.45;5.60;;;28.60;70.80;;;;;;1858009;77;21033;-53
2021/08/08 06:51:35;;;;;;;5.97;4.95;;;28.70;70.50;;;;;;1857781;77;21088;-53
2021/08/08 06:54:04;;;;;;;7.90;5.08;;;28.80;70.00;;;;;;1854319;77;21029;-54
2021/08/08 06:56:34;;;;;;;4.85;4.42;;;28.80;70.00;;;;;;1858498;77;21029;-54
2021/08/08 06:59:03;;;;;;;4.35;3.98;;;28.90;68.90;;;;;;1857195;77;21033;-54
2021/08/08 07:01:32;;;;;;;6.75;4.87;;;28.90;67.90;;;;;;1856027;77;21092;-53
2021/08/08 07:04:02;;;;;;;5.83;4.70;;;28.80;67.90;;;;;;1855967;77;21472;-51
2021/08/08 07:06:32;;;;;;;5.37;4.83;;;28.80;67.70;;;;;;1856195;77;21107;-50
2021/08/08 07:09:02;;;;;;;5.03;4.33;;;28.90;67.90;;;;;;1856038;77;21045;-50
2021/08/08 07:11:31;;;;;;;5.25;4.05;;;29.00;67.70;;;;;;1856227;77;21135;-50
2021/08/08 07:14:01;;;;;;;7.90;4.60;;;29.10;67.50;;;;;;1856119;77;21200;-51
2021/08/08 07:16:31;;;;;;;6.28;4.30;;;29.20;67.40;;;;;;1860746;77;21158;-50
2021/08/08 07:19:01;;;;;;;7.65;4.30;;;29.30;67.10;;;;;;1861170;77;21076;-52
2021/08/08 07:21:30;;;;;;;10.93;4.97;;;29.30;66.70;;;;;;1861115;77;21056;-48
2021/08/08 07:24:00;;;;;;;5.58;4.25;;;29.30;67.10;;;;;;1861157;77;21036;-51
2021/08/08 07:26:29;;;;;;;7.20;4.78;;;29.40;67.10;;;;;;1861084;77;21041;-51
2021/08/08 07:28:59;;;;;;;7.62;4.83;;;29.50;66.80;;;;;;1870356;75;21118;-51
2021/08/08 07:31:28;;;;;;;6.33;4.22;;;29.60;66.40;;;;;;1871450;77;21174;-51
2021/08/08 07:33:58;;;;;;;6.25;5.08;;;29.60;66.40;;;;;;1871728;77;21025;-54
2021/08/08 07:36:28;;;;;;;6.92;4.22;;;29.60;66.40;;;;;;1871578;77;21104;-52
2021/08/08 07:38:58;;;;;;;7.55;5.03;;;29.70;65.90;;;;;;1871703;77;21009;-53
2021/08/08 07:41:27;;;;;;;5.60;4.40;;;29.70;66.10;;;;;;1871799;77;21060;-54
2021/08/08 07:43:56;;;;;;;6.33;5.10;;;29.80;66.10;;;;;;1871642;76;21013;-54
2021/08/08 07:46:26;;;;;;;6.35;4.40;;;29.90;65.70;;;;;;1871465;77;21037;-54
2021/08/08 07:48:55;;;;;;;9.30;4.67;;;30.00;65.80;;;;;;1870680;77;21107;-54
2021/08/08 07:51:26;;;;;;;4.67;4.03;;;30.20;65.30;;;;;;1871274;77;21001;-50
2021/08/08 07:53:56;;;;;;;4.97;4.45;;;30.30;65.20;;;;;;1870145;76;21596;-54
2021/08/08 07:56:26;;;;;;;9.15;5.10;;;30.40;64.70;;;;;;1877528;76;21070;-53
2021/08/08 07:58:56;;;;;;;5.90;3.85;;;30.50;64.20;;;;;;1880536;76;21108;-53
2021/08/08 08:01:26;;;;;;;6.37;3.98;;;30.60;64.20;;;;;;1871402;76;21201;-51
2021/08/08 08:03:56;;;;;;;6.10;4.20;;;30.70;63.60;;;;;;1871425;77;21105;-52
2021/08/08 08:06:25;;;;;;;7.00;4.10;;;30.80;63.50;;;;;;1871634;77;21103;-52
2021/08/08 08:08:55;;;;;;;6.37;4.12;;;30.90;62.80;;;;;;1877112;76;21042;-52
2021/08/08 08:11:25;;;;;;;8.28;4.20;;;31.00;62.70;;;;;;1858948;77;21005;-53
2021/08/08 08:13:54;;;;;;;4.85;4.12;;;31.00;62.50;;;;;;1871539;77;21123;-52
2021/08/08 08:16:24;;;;;;;10.00;4.95;;;31.10;62.40;;;;;;1874865;76;21124;-52
2021/08/08 08:18:53;;;;;;;8.40;4.53;;;31.10;61.60;;;;;;1889798;76;21042;-51
2021/08/08 08:21:22;;;;;;;6.10;4.05;;;31.20;61.10;;;;;;1889371;76;21098;-53
2021/08/08 08:23:52;;;;;;;7.45;4.00;;;31.30;60.90;;;;;;1889815;76;21108;-53
2021/08/08 08:26:23;;;;;;;10.00;5.58;;;31.40;60.50;;;;;;1889946;76;21101;-51
2021/08/08 08:28:55;;;;;;;9.88;5.15;;;31.40;61.00;;;;;;1882651;75;21139;-51
2021/08/08 08:31:26;;;;;;;7.40;4.87;;;31.40;61.30;;;;;;1861172;77;21518;-52
2021/08/08 08:33:56;;;;;;;8.38;3.90;;;31.40;61.60;;;;;;1860924;77;21061;-54
2021/08/08 08:36:27;;;;;;;8.83;4.25;;;31.20;61.40;;;;;;1858069;77;21069;-52
2021/08/08 08:38:56;;;;;;;8.70;3.72;;;31.00;62.20;;;;;;1856334;77;21085;-52
2021/08/08 08:41:31;;;;;;;4.05;3.65;;;30.80;62.50;;;;;;1856523;77;21081;-52
2021/08/08 08:44:01;;;;;;;7.62;4.10;;;30.60;63.50;;;;;;1856511;77;21051;-53
2021/08/08 08:46:34;;;;;;;4.90;3.47;;;30.30;64.50;;;;;;1856487;77;21157;-52
2021/08/08 08:49:05;;;;;;;5.00;3.85;;;30.10;65.50;;;;;;1857683;77;21037;-52
2021/08/08 08:51:38;;;;;;;5.12;4.10;;;29.80;66.50;;;;;;1855867;77;21085;-52
2021/08/08 08:54:07;;;;;;;8.48;4.17;;;29.50;67.30;;;;;;1854196;77;21530;-53
2021/08/08 08:56:37;;;;;;;6.47;3.75;;;29.20;68.20;;;;;;1857133;77;21017;-52
2021/08/08 08:59:07;;;;;;;4.55;4.05;;;29.00;68.70;;;;;;1856314;77;21029;-50
2021/08/08 09:01:39;;;;;;;5.22;4.70;;;28.80;69.30;;;;;;1855403;77;21021;-51
2021/08/08 09:04:08;;;;;;;5.22;4.70;;;28.70;69.70;;;;;;1855971;77;21037;-52
2021/08/08 09:06:39;;;;;;;7.72;5.28;;;28.70;69.90;;;;;;1855873;76;21057;-52
2021/08/08 09:09:09;;;;;;;5.25;3.75;;;28.70;70.40;;;;;;1879831;76;21086;-53
2021/08/08 09:11:43;;;;;;;5.20;4.08;;;28.70;70.30;;;;;;1856501;77;20991;-53
2021/08/08 09:14:15;;;;;;;9.90;4.47;;;28.80;70.10;;;;;;1880686;76;21084;-51
2021/08/08 09:16:47;;;;;;;8.10;5.17;;;28.80;70.50;;;;;;1890102;76;21069;-54
2021/08/08 09:19:21;;;;;;;6.42;4.92;;;28.80;70.80;;;;;;1886299;76;21104;-52
2021/08/08 09:21:53;;;;;;;9.55;4.37;;;28.80;71.30;;;;;;1887376;76;21144;-51
2021/08/08 09:24:28;;;;;;;4.92;4.00;;;28.90;71.30;;;;;;1894571;76;21033;-52
2021/08/08 09:27:12;;;;;;;5.97;3.92;;;29.00;70.90;;;;;;1888415;76;21610;-51
2021/08/08 09:29:48;;;;;;;6.35;4.28;;;29.00;69.80;;;;;;1877215;75;21080;-51
2021/08/08 09:32:19;;;;;;;6.03;4.35;;;29.10;69.70;;;;;;1894540;74;21083;-51
2021/08/08 09:34:54;;;;;;;9.43;4.80;;;29.20;69.60;;;;;;1886261;76;21041;-52
2021/08/08 09:37:24;;;;;;;7.67;4.62;;;29.40;69.40;;;;;;1886093;76;21061;-52
2021/08/08 09:39:54;;;;;;;7.97;4.35;;;29.50;69.10;;;;;;1886086;76;21013;-51
2021/08/08 09:42:29;;;;;;;8.25;4.75;;;29.60;69.00;;;;;;1885541;76;21017;-52
2021/08/08 09:45:02;;;;;;;10.08;5.22;;;29.70;68.80;;;;;;1886170;76;21092;-51
2021/08/08 09:47:42;;;;;;;8.45;4.90;;;29.70;69.10;;;;;;1886149;75;21577;-52
2021/08/08 09:50:20;;;;;;;8.98;5.85;;;29.80;69.00;;;;;;1886436;76;21049;-52
2021/08/08 09:52:54;;;;;;;10.43;5.58;;;29.90;69.10;;;;;;1886123;76;21166;-52
2021/08/08 09:55:27;;;;;;;9.70;6.45;;;29.90;68.90;;;;;;1916986;74;21508;-52
2021/08/08 09:57:57;;;;;;;10.95;6.70;;;30.10;68.30;;;;;;1899108;74;21397;-51
2021/08/08 10:00:29;;;;;;;9.78;6.28;;;30.20;68.20;;;;;;1889970;74;21130;-50
2021/08/08 10:02:59;;;;;;;10.48;5.75;;;30.30;67.70;;;;;;1901965;74;21062;-53
2021/08/08 10:05:29;;;;;;;11.73;6.50;;;30.50;67.50;;;;;;1915842;74;21177;-52
2021/08/08 10:08:00;;;;;;;10.98;6.85;;;30.50;67.80;;;;;;1915195;74;21131;-52
2021/08/08 10:10:30;;;;;;;7.05;6.03;;;30.60;67.70;;;;;;1902326;74;21049;-52
2021/08/08 10:13:08;;;;;;;12.03;6.20;;;30.60;67.30;;;;;;1893223;76;21017;-54
2021/08/08 10:15:43;;;;;;;9.40;6.15;;;30.70;67.00;;;;;;1911628;74;21506;-52
2021/08/08 10:18:15;;;;;;;12.47;6.70;;;30.70;66.30;;;;;;1889510;74;21184;-53
2021/08/08 10:20:45;;;;;;;11.90;7.22;;;30.80;66.10;;;;;;1890127;76;21527;-49
2021/08/08 10:23:16;;;;;;;12.55;6.75;;;30.90;65.50;;;;;;1885883;76;21158;-51
2021/08/08 10:25:47;;;;;;;12.98;7.33;;;31.00;64.50;;;;;;1885808;76;21108;-52
2021/08/08 10:28:17;;;;;;;17.37;8.25;;;31.00;64.10;;;;;;1907496;74;21059;-50
2021/08/08 10:30:47;;;;;;;15.45;7.72;;;31.00;64.00;;;;;;1875145;74;21199;-52
2021/08/08 10:33:17;;;;;;;10.40;6.97;;;31.00;63.60;;;;;;1864892;76;21025;-51
2021/08/08 10:35:48;;;;;;;10.75;6.60;;;31.00;63.50;;;;;;1865077;77;21029;-52
2021/08/08 10:38:18;;;;;;;11.93;5.80;;;31.10;62.70;;;;;;1864906;77;21041;-50
2021/08/08 10:40:48;;;;;;;11.28;6.58;;;31.10;62.10;;;;;;1865100;77;21038;-50
2021/08/08 10:43:27;;;;;;;10.90;5.78;;;31.10;61.80;;;;;;1864994;77;21006;-50
2021/08/08 10:46:07;;;;;;;12.80;6.83;;;31.10;61.60;;;;;;1864912;77;21095;-51
2021/08/08 10:48:38;;;;;;;11.57;8.50;;;31.10;61.10;;;;;;1864919;77;21010;-52
2021/08/08 10:51:22;;;;;;;10.15;7.15;;;31.00;60.10;;;;;;1864993;77;21065;-51
2021/08/08 10:54:02;;;;;;;10.83;6.67;;;31.00;59.80;;;;;;1865106;76;21077;-49
2021/08/08 10:56:48;;;;;;;9.30;6.58;;;31.00;59.50;;;;;;1865061;77;21697;-52
2021/08/08 10:59:28;;;;;;;11.48;6.62;;;30.90;59.50;;;;;;1864872;76;21330;-51
2021/08/08 11:02:08;;;;;;;11.53;7.58;;;30.90;59.80;;;;;;1863542;76;21057;-52
2021/08/08 11:04:38;;;;;;;11.12;6.60;;;30.90;60.20;;;;;;1861238;77;21026;-52
2021/08/08 11:07:08;;;;;;;8.48;6.60;;;30.80;60.00;;;;;;1864934;76;21053;-52
2021/08/08 11:09:40;;;;;;;6.58;5.85;;;30.80;59.90;;;;;;1864091;77;21139;-53
2021/08/08 11:12:10;;;;;;;7.53;6.50;;;30.80;60.00;;;;;;1864754;76;21112;-53
2021/08/08 11:14:47;;;;;;;9.05;6.62;;;30.70;60.20;;;;;;1865092;77;21033;-52
2021/08/08 11:17:16;;;;;;;10.60;7.40;;;30.70;60.50;;;;;;1865122;77;21023;-52
2021/08/08 11:19:46;;;;;;;13.38;7.30;;;30.70;60.40;;;;;;1865005;77;21038;-55
2021/08/08 11:22:17;;;;;;;10.05;6.95;;;30.70;60.00;;;;;;1864898;77;21182;-55
2021/08/08 11:25:06;;;;;;;7.53;6.30;;;30.70;60.10;;;;;;1862843;76;21088;-55
2021/08/08 11:27:43;;;;;;;8.15;6.75;;;30.70;60.20;;;;;;1845735;77;21089;-55
2021/08/08 11:30:15;;;;;;;10.38;6.83;;;30.70;60.50;;;;;;1873122;76;21088;-55
2021/08/08 11:32:44;;;;;;;11.05;6.83;;;30.70;60.30;;;;;;1886286;76;21009;-55
2021/08/08 11:35:20;;;;;;;11.68;6.65;;;30.60;60.20;;;;;;1886256;76;21103;-55
2021/08/08 11:37:51;;;;;;;7.78;6.45;;;30.70;60.60;;;;;;1886446;76;21091;-55
2021/08/08 11:40:22;;;;;;;7.25;6.05;;;30.70;60.30;;;;;;1886339;76;21104;-55
2021/08/08 11:43:00;;;;;;;8.83;6.62;;;30.70;60.20;;;;;;1886402;76;21026;-55
2021/08/08 11:45:34;;;;;;;11.55;7.35;;;30.70;60.20;;;;;;1884706;76;21483;-55
2021/08/08 11:48:04;;;;;;;12.53;8.53;;;30.70;60.40;;;;;;1882431;76;21152;-55
2021/08/08 11:50:33;;;;;;;10.35;7.75;;;30.60;60.80;;;;;;1886257;76;21080;-55
2021/08/08 11:53:05;;;;;;;9.70;7.62;;;30.60;61.10;;;;;;1886297;76;21162;-55
2021/08/08 11:55:35;;;;;;;8.38;6.78;;;30.60;61.30;;;;;;1886431;76;21025;-55
2021/08/08 11:58:12;;;;;;;11.35;7.30;;;30.60;60.90;;;;;;1886382;76;21042;-55
2021/08/08 12:00:42;;;;;;;15.80;7.62;;;30.60;61.10;;;;;;1886421;76;21041;-55
2021/08/08 12:03:12;;;;;;;7.90;7.03;;;30.60;61.40;;;;;;1886298;76;21095;-55
2021/08/08 12:05:42;;;;;;;10.10;6.97;;;30.60;61.30;;;;;;1886312;76;21038;-55
2021/08/08 12:08:14;;;;;;;10.75;6.85;;;30.50;61.00;;;;;;1886309;76;21107;-54
2021/08/08 12:10:43;;;;;;;10.15;6.70;;;30.50;61.00;;;;;;1886471;76;21150;-55
2021/08/08 12:13:18;;;;;;;11.20;6.65;;;30.50;60.90;;;;;;1886407;76;21081;-55
2021/08/08 12:15:47;;;;;;;12.65;6.45;;;30.50;60.70;;;;;;1886166;76;21013;-55
2021/08/08 12:18:17;;;;;;;10.13;6.12;;;30.40;60.70;;;;;;1886301;76;21111;-55
2021/08/08 12:20:47;;;;;;;8.65;5.90;;;30.40;60.60;;;;;;1884310;76;21547;-55
2021/08/08 12:23:18;;;;;;;10.98;6.53;;;30.40;60.50;;;;;;1886216;76;21085;-55
2021/08/08 12:25:50;;;;;;;8.40;6.42;;;30.50;60.50;;;;;;1886238;76;21135;-55
2021/08/08 12:28:26;;;;;;;8.93;5.85;;;30.60;59.70;;;;;;1883824;76;21586;-55
2021/08/08 12:31:07;;;;;;;14.53;6.53;;;30.70;59.30;;;;;;1880073;76;21053;-55
2021/08/08 12:33:36;;;;;;;14.50;7.10;;;30.90;59.00;;;;;;1868157;77;21005;-55
2021/08/08 12:36:13;;;;;;;14.98;7.65;;;31.10;58.20;;;;;;1871867;77;21037;-55
2021/08/08 12:38:53;;;;;;;11.43;7.95;;;31.10;57.60;;;;;;1871688;77;21115;-55
2021/08/08 12:41:30;;;;;;;10.08;8.58;;;31.20;57.00;;;;;;1871807;76;21009;-56
2021/08/08 12:44:00;;;;;;;14.07;9.05;;;31.20;56.60;;;;;;1870853;76;21045;-56
2021/08/08 12:46:31;;;;;;;13.08;9.15;;;31.20;56.90;;;;;;1871814;77;21001;-56
2021/08/08 12:49:03;;;;;;;12.60;9.83;;;31.30;56.80;;;;;;1871870;77;21103;-56
2021/08/08 12:51:33;;;;;;;11.48;9.03;;;31.30;56.60;;;;;;1871777;76;21041;-56
2021/08/08 12:54:02;;;;;;;12.45;8.28;;;31.30;56.10;;;;;;1871919;76;21087;-56
2021/08/08 12:56:31;;;;;;;11.60;8.98;;;31.20;56.10;;;;;;1871766;77;21037;-56
2021/08/08 12:59:01;;;;;;;9.70;8.18;;;31.20;56.20;;;;;;1871943;77;21041;-56
2021/08/08 13:01:38;;;;;;;10.65;8.28;;;31.20;56.10;;;;;;1871686;77;21028;-56